Time;durP1;ratioP1;P1;durP2;ratioP2;P2;SDS_P1;SDS_P2;PMS_P1;PMS_P2;Temp;Humidity;BMP_temperature;BMP_pressure;BME280_temperature;BME280_humidity;BME280_pressure;Samples;Min_cycle;Max_cycle;Signal;HPM_P1;HPM_P2
2022/09/02 00:02:16;;;;;;;14.63;9.18;;;;;;;12.42;95.85;98380.69;5083574;28;20040;-67
2022/09/02 00:04:42;;;;;;;15.82;7.90;;;;;;;12.42;96.91;98381.56;5083554;28;20343;-67
2022/09/02 00:07:08;;;;;;;11.50;7.97;;;;;;;12.38;96.88;98385.22;5083458;28;20025;-67
2022/09/02 00:09:34;;;;;;;14.10;9.10;;;;;;;12.42;97.83;98380.69;5083495;28;20049;-67
2022/09/02 00:12:00;;;;;;;13.00;8.15;;;;;;;12.38;98.05;98377.31;5083822;28;20024;-67
2022/09/02 00:14:32;;;;;;;15.43;9.20;;;;;;;12.32;98.03;98385.41;5083379;28;20051;-67
2022/09/02 00:16:59;;;;;;;;;;;;;;;12.21;97.61;98376.94;5083904;28;20061;-67
2022/09/02 00:19:26;;;;;;;13.43;8.57;;;;;;;12.24;98.02;98382.13;5083395;28;19979;-67
2022/09/02 00:21:53;;;;;;;14.82;9.80;;;;;;;12.24;97.95;98375.97;5083540;28;20192;-67
2022/09/02 00:24:19;;;;;;;16.08;9.27;;;;;;;12.22;98.14;98378.66;5083450;28;20080;-67
2022/09/02 00:26:45;;;;;;;13.68;8.88;;;;;;;12.21;97.96;98379.56;5083363;28;20212;-67
2022/09/02 00:29:13;;;;;;;13.23;8.15;;;;;;;12.10;96.31;98362.34;5083374;28;20250;-67
2022/09/02 00:31:39;;;;;;;13.98;8.63;;;;;;;12.12;97.13;98366.66;5083256;28;20066;-67
2022/09/02 00:34:04;;;;;;;14.65;9.40;;;;;;;12.17;97.52;98363.88;5083365;28;20228;-67
2022/09/02 00:36:30;;;;;;;13.05;8.63;;;;;;;12.02;97.44;98362.56;5083231;28;20025;-67
2022/09/02 00:38:55;;;;;;;13.68;8.50;;;;;;;11.99;97.49;98357.38;5083492;28;20020;-67
2022/09/02 00:41:24;;;;;;;13.77;9.02;;;;;;;12.03;98.90;98361.66;5083228;28;20028;-67
2022/09/02 00:43:52;;;;;;;15.82;9.07;;;;;;;12.01;98.43;98359.97;5083310;28;20362;-67
2022/09/02 00:46:21;;;;;;;11.45;8.43;;;;;;;11.90;98.13;98355.00;5082000;28;20024;-67
2022/09/02 00:49:04;;;;;;;14.38;8.85;;;;;;;11.87;98.86;98360.34;5083474;28;20130;-67
2022/09/02 00:51:35;;;;;;;19.85;9.38;;;;;;;11.91;98.54;98362.03;5083264;28;20091;-67
2022/09/02 00:54:01;;;;;;;13.55;9.65;;;;;;;11.84;99.12;98360.47;5084848;28;20234;-67
2022/09/02 00:56:30;;;;;;;15.00;9.52;;;;;;;11.85;99.58;98356.91;5086811;28;20385;-67
2022/09/02 00:58:56;;;;;;;14.65;10.07;;;;;;;11.80;99.87;98356.16;5086954;28;20028;-67
2022/09/02 01:01:22;;;;;;;25.30;9.13;;;;;;;11.61;98.69;98349.66;5086552;28;20055;-67
2022/09/02 01:03:49;;;;;;;14.05;8.93;;;;;;;11.64;99.52;98357.50;5087008;28;20027;-67
2022/09/02 01:06:19;;;;;;;14.23;8.65;;;;;;;11.58;98.96;98362.91;5086668;28;20061;-67
2022/09/02 01:08:48;;;;;;;14.75;8.55;;;;;;;11.64;99.89;98354.88;5086645;28;20123;-67
2022/09/02 01:11:17;;;;;;;12.15;8.98;;;;;;;11.71;100.00;98359.06;5086948;28;20113;-67
2022/09/02 01:13:43;;;;;;;14.52;8.98;;;;;;;11.63;100.00;98358.44;5086396;28;20024;-67
2022/09/02 01:16:26;;;;;;;15.57;10.18;;;;;;;11.65;100.00;98361.91;5086621;28;20024;-67
2022/09/02 01:18:54;;;;;;;13.52;9.13;;;;;;;11.58;100.00;98373.47;5086329;28;20051;-67
2022/09/02 01:21:21;;;;;;;17.63;9.95;;;;;;;11.55;100.00;98373.53;5086509;28;20099;-67
2022/09/02 01:23:48;;;;;;;14.15;9.38;;;;;;;11.55;100.00;98368.28;5086463;28;20020;-67
2022/09/02 01:26:14;;;;;;;15.15;9.30;;;;;;;11.52;99.12;98365.72;5086154;28;20205;-67
2022/09/02 01:28:39;;;;;;;13.43;9.23;;;;;;;11.64;100.00;98368.06;5086369;28;20050;-67
2022/09/02 01:31:05;;;;;;;13.77;9.82;;;;;;;11.60;100.00;98361.13;5086120;28;20308;-67
2022/09/02 01:33:31;;;;;;;16.75;9.88;;;;;;;11.49;99.96;98363.19;5086067;28;20075;-67
2022/09/02 01:35:56;;;;;;;11.25;8.73;;;;;;;11.53;100.00;98367.47;5085969;28;20024;-67
2022/09/02 01:38:23;;;;;;;12.98;8.93;;;;;;;11.34;98.72;98363.59;5086052;28;20024;-67
2022/09/02 01:40:48;;;;;;;15.50;8.75;;;;;;;11.19;98.50;98358.72;5086192;28;20331;-67
2022/09/02 01:43:17;;;;;;;14.05;8.68;;;;;;;11.21;99.63;98358.69;5085920;28;20016;-67
2022/09/02 01:45:45;;;;;;;14.30;8.38;;;;;;;11.11;98.64;98359.84;5085971;28;20029;-67
2022/09/02 01:48:12;;;;;;;15.88;9.70;;;;;;;11.08;99.92;98355.53;5086047;28;20382;-67
2022/09/02 01:50:40;;;;;;;12.07;8.48;;;;;;;11.08;99.42;98359.91;5085886;28;20035;-67
2022/09/02 01:53:06;;;;;;;14.35;9.43;;;;;;;11.05;99.32;98350.34;5085939;28;20110;-67
2022/09/02 01:55:32;;;;;;;16.17;10.30;;;;;;;11.15;100.00;98349.19;5085898;28;20034;-67
2022/09/02 01:57:58;;;;;;;12.40;8.60;;;;;;;11.08;99.97;98354.66;5085634;28;20346;-67
2022/09/02 02:00:25;;;;;;;12.57;8.30;;;;;;;10.99;99.06;98353.13;5085572;28;20087;-67
2022/09/02 02:02:51;;;;;;;14.48;9.90;;;;;;;11.07;100.00;98351.13;5077926;28;20054;-67
2022/09/02 02:05:17;;;;;;;13.55;8.70;;;;;;;10.97;99.90;98357.53;5085445;28;20024;-67
2022/09/02 02:07:43;;;;;;;14.40;9.98;;;;;;;11.04;100.00;98356.47;5085440;28;20039;-67
2022/09/02 02:10:11;;;;;;;16.40;10.30;;;;;;;11.06;100.00;98352.06;5078836;28;20036;-67
2022/09/02 02:12:38;;;;;;;14.48;10.45;;;;;;;11.13;100.00;98366.78;5085829;28;20343;-67
2022/09/02 02:15:06;;;;;;;15.68;9.57;;;;;;;10.95;100.00;98354.94;5085263;28;20024;-67
2022/09/02 02:17:31;;;;;;;13.60;9.48;;;;;;;10.97;100.00;98347.00;5085448;28;20091;-67
2022/09/02 02:19:57;;;;;;;13.93;8.77;;;;;;;10.89;100.00;98354.25;5085540;28;20024;-67
2022/09/02 02:22:22;;;;;;;14.85;9.18;;;;;;;10.76;99.14;98355.47;5085368;28;20025;-67
2022/09/02 02:24:48;;;;;;;14.05;10.43;;;;;;;10.82;100.00;98352.66;5085486;28;20319;-67
2022/09/02 02:27:13;;;;;;;18.80;10.07;;;;;;;10.75;100.00;98353.72;5085544;28;20032;-67
2022/09/02 02:29:38;;;;;;;14.40;10.00;;;;;;;10.78;100.00;98351.88;5085769;28;20028;-67
2022/09/02 02:32:06;;;;;;;14.63;10.75;;;;;;;10.75;100.00;98351.09;5085612;28;20024;-67
2022/09/02 02:34:33;;;;;;;16.85;9.32;;;;;;;10.71;100.00;98349.44;5085447;28;20024;-67
2022/09/02 02:36:58;;;;;;;14.35;10.18;;;;;;;10.66;100.00;98362.69;5085579;28;20050;-67
2022/09/02 02:39:23;;;;;;;14.95;10.23;;;;;;;10.58;100.00;98353.28;5085334;28;20036;-67
2022/09/02 02:41:49;;;;;;;14.15;9.05;;;;;;;10.57;100.00;98359.44;5085237;28;20086;-67
2022/09/02 02:44:14;;;;;;;14.70;10.10;;;;;;;10.49;100.00;98350.84;5085135;28;20254;-67
2022/09/02 02:46:40;;;;;;;13.63;9.10;;;;;;;10.43;100.00;98353.63;5085072;28;20032;-67
2022/09/02 02:49:06;;;;;;;14.90;9.52;;;;;;;10.35;100.00;98350.31;5084752;28;20035;-67
2022/09/02 02:51:33;;;;;;;16.83;10.82;;;;;;;10.40;100.00;98353.69;5084277;28;20025;-67
2022/09/02 02:54:00;;;;;;;13.50;8.80;;;;;;;10.28;99.99;98349.56;5084626;28;20038;-67
2022/09/02 02:56:26;;;;;;;15.05;9.95;;;;;;;10.30;100.00;98349.53;5084424;28;20028;-67
2022/09/02 02:58:51;;;;;;;15.45;9.82;;;;;;;10.26;100.00;98350.53;5084497;28;20096;-67
2022/09/02 03:01:16;;;;;;;12.98;9.40;;;;;;;10.33;100.00;98352.97;5084479;28;20035;-67
2022/09/02 03:03:43;;;;;;;18.73;9.77;;;;;;;10.30;100.00;98346.91;5084325;28;20024;-67
2022/09/02 03:06:08;;;;;;;14.60;9.73;;;;;;;10.23;100.00;98350.59;5084546;28;20258;-67
2022/09/02 03:08:36;;;;;;;13.18;9.60;;;;;;;10.23;100.00;98350.59;5084402;28;20091;-67
2022/09/02 03:11:04;;;;;;;13.98;9.90;;;;;;;10.03;100.00;98347.50;5084169;28;20298;-67
2022/09/02 03:13:31;;;;;;;12.57;9.02;;;;;;;10.02;100.00;98351.88;5084187;28;20024;-67
2022/09/02 03:15:56;;;;;;;13.55;9.27;;;;;;;10.06;100.00;98343.06;5083578;28;20035;-67
2022/09/02 03:18:21;;;;;;;12.07;8.63;;;;;;;10.04;100.00;98355.38;5084144;28;20028;-67
2022/09/02 03:20:47;;;;;;;13.18;9.82;;;;;;;10.12;100.00;98357.84;5084185;28;20024;-67
2022/09/02 03:23:12;;;;;;;12.55;8.82;;;;;;;10.05;100.00;98356.22;5084149;28;20020;-67
2022/09/02 03:25:42;;;;;;;11.32;8.40;;;;;;;9.96;100.00;98356.41;5084128;28;20197;-67
2022/09/02 03:28:07;;;;;;;15.82;10.20;;;;;;;9.94;100.00;98352.97;5084242;28;20027;-67
2022/09/02 03:30:33;;;;;;;13.73;8.65;;;;;;;9.82;100.00;98353.22;5084069;28;20260;-67
2022/09/02 03:33:00;;;;;;;13.85;9.57;;;;;;;9.85;100.00;98350.50;5083878;28;20024;-67
2022/09/02 03:35:27;;;;;;;12.40;9.15;;;;;;;9.90;100.00;98356.56;5084005;28;20020;-67
2022/09/02 03:37:52;;;;;;;13.55;9.07;;;;;;;9.81;100.00;98351.50;5083917;28;20032;-67
2022/09/02 03:40:24;;;;;;;16.33;9.80;;;;;;;9.76;100.00;98348.94;5083865;28;20044;-67
2022/09/02 03:42:50;;;;;;;13.98;9.77;;;;;;;9.81;100.00;98354.13;5083931;28;20020;-67
2022/09/02 03:45:16;;;;;;;12.95;9.40;;;;;;;9.67;99.93;98348.25;5083772;28;20198;-67
2022/09/02 03:47:49;;;;;;;14.65;9.35;;;;;;;9.77;100.00;98355.06;5083867;28;20020;-67
2022/09/02 03:50:17;;;;;;;19.38;11.07;;;;;;;9.78;100.00;98346.28;5084070;28;20028;-67
2022/09/02 03:52:42;;;;;;;14.50;10.63;;;;;;;9.83;100.00;98344.41;5083652;28;20021;-67
2022/09/02 03:55:08;;;;;;;13.55;9.00;;;;;;;9.83;100.00;98349.66;5084004;28;20095;-67
2022/09/02 03:57:34;;;;;;;12.18;8.85;;;;;;;9.75;100.00;98348.97;5083711;28;20208;-67
2022/09/02 04:00:03;;;;;;;14.02;10.25;;;;;;;9.79;100.00;98353.28;5083642;28;20334;-67
2022/09/02 04:02:28;;;;;;;16.20;9.95;;;;;;;9.61;100.00;98344.00;5083940;28;20024;-67
2022/09/02 04:04:53;;;;;;;14.73;9.00;;;;;;;9.56;100.00;98334.50;5083479;28;20279;-67
2022/09/02 04:07:19;;;;;;;12.52;9.32;;;;;;;9.57;100.00;98350.22;5083612;28;20073;-67
2022/09/02 04:09:45;;;;;;;15.02;9.90;;;;;;;9.57;100.00;98351.97;5083491;28;20044;-67
2022/09/02 04:12:10;;;;;;;14.60;10.27;;;;;;;9.52;100.00;98343.34;5083286;28;20034;-67
2022/09/02 04:14:36;;;;;;;13.45;8.90;;;;;;;9.41;100.00;98345.28;5083568;28;20083;-67
2022/09/02 04:17:02;;;;;;;15.82;10.07;;;;;;;9.34;100.00;98339.31;5083568;28;20024;-67
2022/09/02 04:19:28;;;;;;;16.00;10.02;;;;;;;9.34;100.00;98338.44;5083410;28;20028;-67
2022/09/02 04:21:53;;;;;;;17.40;10.48;;;;;;;9.40;100.00;98341.78;5083528;28;20026;-67
2022/09/02 04:24:18;;;;;;;13.57;8.80;;;;;;;9.33;100.00;98331.44;5083329;28;20077;-67
2022/09/02 04:26:44;;;;;;;13.95;9.90;;;;;;;9.23;100.00;98345.63;5083437;28;20020;-67
2022/09/02 04:29:09;;;;;;;14.98;10.63;;;;;;;9.14;100.00;98340.56;5087210;28;20029;-67
2022/09/02 04:31:35;;;;;;;16.13;10.13;;;;;;;9.08;100.00;98340.69;5086038;28;20064;-67
2022/09/02 04:34:00;;;;;;;13.82;9.20;;;;;;;9.05;100.00;98338.09;5087398;28;20244;-67
2022/09/02 04:36:26;;;;;;;15.38;9.50;;;;;;;9.09;100.00;98339.78;5087211;28;20028;-67
2022/09/02 04:38:52;;;;;;;15.25;9.80;;;;;;;9.11;100.00;98340.63;5077272;28;20033;-67
2022/09/02 04:41:21;;;;;;;15.18;9.75;;;;;;;9.13;100.00;98344.94;5067478;28;20352;-67
2022/09/02 04:43:48;;;;;;;13.05;9.18;;;;;;;9.14;100.00;98337.94;5066320;28;20039;-67
2022/09/02 04:46:15;;;;;;;14.48;9.73;;;;;;;9.17;100.00;98340.50;5066238;28;20028;-67
2022/09/02 04:48:41;;;;;;;15.90;10.70;;;;;;;9.14;100.00;98341.41;5067343;28;20058;-67
2022/09/02 04:51:16;;;;;;;13.05;9.45;;;;;;;9.06;100.00;98347.69;5066179;28;20025;-67
2022/09/02 04:53:43;;;;;;;15.43;10.02;;;;;;;9.14;100.00;98345.81;5067220;28;20021;-67
2022/09/02 04:56:11;;;;;;;14.82;9.98;;;;;;;9.16;100.00;98349.25;5066128;28;20020;-67
2022/09/02 04:58:38;;;;;;;12.60;9.43;;;;;;;9.10;100.00;98342.38;5067167;28;20047;-67
2022/09/02 05:01:09;;;;;;;12.50;8.73;;;;;;;9.00;100.00;98345.19;5067093;28;20032;-67
2022/09/02 05:03:35;;;;;;;17.10;11.32;;;;;;;9.04;100.00;98344.22;5067066;28;20017;-67
2022/09/02 05:06:06;;;;;;;12.68;9.25;;;;;;;8.96;100.00;98340.88;5067075;28;20021;-67
2022/09/02 05:08:32;;;;;;;18.33;10.80;;;;;;;9.02;100.00;98348.66;5067038;28;20043;-67
2022/09/02 05:10:57;;;;;;;17.02;10.15;;;;;;;9.01;100.00;98345.16;5066856;28;20078;-67
2022/09/02 05:13:24;;;;;;;12.60;9.00;;;;;;;9.09;100.00;98348.53;5066807;28;20092;-67
2022/09/02 05:15:50;;;;;;;14.20;9.43;;;;;;;9.01;100.00;98349.56;5066809;28;20020;-67
2022/09/02 05:18:16;;;;;;;20.73;9.52;;;;;;;9.09;100.00;98353.78;5066817;28;20056;-67
2022/09/02 05:20:42;;;;;;;13.13;9.43;;;;;;;9.07;100.00;98349.44;5066817;28;20215;-67
2022/09/02 05:23:10;;;;;;;13.60;9.60;;;;;;;9.09;100.00;98358.16;5066785;28;20304;-67
2022/09/02 05:25:36;;;;;;;13.82;10.30;;;;;;;9.19;100.00;98354.47;5066691;28;20074;-67
2022/09/02 05:28:02;;;;;;;15.32;9.95;;;;;;;9.31;100.00;98359.50;5066898;28;20304;-67
2022/09/02 05:30:27;;;;;;;14.25;9.93;;;;;;;9.78;100.00;98362.06;5066850;28;20021;-67
2022/09/02 05:32:53;;;;;;;12.85;9.27;;;;;;;10.53;97.59;98373.53;5066476;28;20083;-67
2022/09/02 05:35:18;;;;;;;12.80;8.70;;;;;;;10.86;93.49;98360.44;5066574;28;20274;-67
2022/09/02 05:37:43;;;;;;;11.57;7.53;;;;;;;11.44;91.53;98365.09;5066499;28;20280;-67
2022/09/02 05:40:11;;;;;;;9.77;7.43;;;;;;;11.91;88.50;98359.38;5065667;28;20031;-67
2022/09/02 05:42:37;;;;;;;9.15;7.25;;;;;;;12.74;84.72;98367.34;5066472;28;20083;-67
2022/09/02 05:45:03;;;;;;;12.75;6.32;;;;;;;12.97;81.77;98356.91;5066578;28;20023;-67
2022/09/02 05:47:28;;;;;;;10.88;6.75;;;;;;;13.39;80.06;98357.25;5066280;28;20020;-67
2022/09/02 05:49:53;;;;;;;8.57;6.05;;;;;;;14.02;78.29;98360.25;5066477;28;20098;-67
2022/09/02 05:52:19;;;;;;;12.73;5.47;;;;;;;14.67;75.78;98356.81;5066212;28;20031;-67
2022/09/02 05:54:44;;;;;;;11.80;6.25;;;;;;;15.43;73.12;98358.94;5066118;28;20442;-67
2022/09/02 05:57:13;;;;;;;10.70;6.25;;;;;;;15.86;71.08;98362.31;5066382;28;20020;-67
2022/09/02 05:59:41;;;;;;;8.98;5.53;;;;;;;16.47;69.45;98363.94;5066056;28;20098;-67
2022/09/02 06:02:11;;;;;;;8.60;5.38;;;;;;;17.00;67.57;98364.84;5066262;28;20251;-68
2022/09/02 06:04:44;;;;;;;9.23;5.50;;;;;;;17.28;66.99;98353.72;5065962;28;20024;-68
2022/09/02 06:07:11;;;;;;;11.15;5.82;;;;;;;17.62;65.31;98353.72;5065934;28;20032;-68
2022/09/02 06:09:36;;;;;;;9.20;5.25;;;;;;;18.06;64.55;98356.69;5065783;28;20252;-68
2022/09/02 06:12:02;;;;;;;8.93;5.90;;;;;;;18.47;63.24;98350.03;5065857;28;20024;-68
2022/09/02 06:14:28;;;;;;;8.57;5.55;;;;;;;18.46;62.62;98349.19;5065976;28;20025;-68
2022/09/02 06:16:55;;;;;;;10.27;5.57;;;;;;;18.94;62.17;98350.88;5065989;28;20245;-68
2022/09/02 06:19:24;;;;;;;8.20;5.75;;;;;;;19.53;61.36;98348.31;5065647;28;20052;-68
2022/09/02 06:21:49;;;;;;;11.55;5.22;;;;;;;20.25;59.50;98348.31;5065661;28;20032;-68
2022/09/02 06:24:15;;;;;;;8.48;5.53;;;;;;;20.24;58.66;98339.44;5065622;28;20017;-68
2022/09/02 06:26:41;;;;;;;20.02;5.45;;;;;;;20.40;59.34;98345.53;5065594;28;20025;-68
2022/09/02 06:29:08;;;;;;;8.45;5.78;;;;;;;20.40;59.71;98342.00;5065774;28;20021;-68
2022/09/02 06:31:34;;;;;;;9.35;4.50;;;;;;;20.66;58.80;98342.06;5065479;28;20043;-68
2022/09/02 06:33:59;;;;;;;6.70;4.43;;;;;;;21.01;57.49;98343.31;5065285;28;20021;-68
2022/09/02 06:36:27;;;;;;;8.80;3.90;;;;;;;21.60;55.06;98343.81;5065353;28;20025;-68
2022/09/02 06:38:55;;;;;;;6.88;4.05;;;;;;;22.01;55.64;98341.84;5065292;28;20243;-68
2022/09/02 06:41:28;;;;;;;7.25;4.30;;;;;;;22.99;52.76;98338.28;5065275;28;20027;-68
2022/09/02 06:43:58;;;;;;;9.07;3.47;;;;;;;22.76;51.44;98331.06;5065219;28;20016;-68
2022/09/02 06:46:27;;;;;;;13.82;3.83;;;;;;;22.70;51.89;98336.88;5065139;28;20031;-68
2022/09/02 06:48:52;;;;;;;6.20;3.40;;;;;;;23.34;50.21;98336.53;5065116;28;20021;-68
2022/09/02 06:51:28;;;;;;;6.57;3.25;;;;;;;24.16;48.96;98345.38;5064052;28;20102;-68
2022/09/02 06:53:53;;;;;;;5.55;3.30;;;;;;;23.86;48.74;98337.00;5064904;28;20043;-68
2022/09/02 06:56:19;;;;;;;7.35;3.45;;;;;;;24.50;48.44;98336.34;5064996;28;20033;-68
2022/09/02 06:58:45;;;;;;;4.88;3.08;;;;;;;24.96;46.38;98331.66;5064870;28;20028;-68
2022/09/02 07:01:17;;;;;;;6.10;3.10;;;;;;;24.87;47.20;98332.41;5064853;28;20024;-68
2022/09/02 07:06:26;;;;;;;5.28;2.78;;;;;;;25.90;45.01;98329.09;5064768;28;20043;-68
2022/09/02 07:08:52;;;;;;;7.85;3.22;;;;;;;25.99;43.88;98317.53;5064537;28;20328;-68
2022/09/02 07:11:20;;;;;;;6.40;3.00;;;;;;;25.87;43.48;98324.81;5064680;28;20036;-68
2022/09/02 07:13:46;;;;;;;5.93;3.05;;;;;;;25.71;44.36;98319.03;5064890;28;20355;-68
2022/09/02 07:16:13;;;;;;;5.75;3.05;;;;;;;25.73;44.08;98316.22;5064661;28;20021;-68
2022/09/02 07:18:38;;;;;;;5.32;2.60;;;;;;;26.03;43.80;98319.84;5064639;28;20348;-68
2022/09/02 07:21:04;;;;;;;5.00;2.83;;;;;;;26.25;43.61;98324.22;5064561;28;20024;-68
2022/09/02 07:23:29;;;;;;;5.28;2.58;;;;;;;25.50;43.52;98314.63;5064566;28;20021;-68
2022/09/02 07:25:55;;;;;;;6.68;2.95;;;;;;;25.48;42.47;98306.66;5064462;28;20046;-68
2022/09/02 07:28:21;;;;;;;5.93;2.78;;;;;;;26.27;42.95;98322.25;5064412;28;20215;-68
2022/09/02 07:30:47;;;;;;;4.55;2.60;;;;;;;26.28;41.20;98313.16;5064354;28;20025;-68
2022/09/02 07:33:13;;;;;;;4.13;2.72;;;;;;;26.08;42.43;98316.75;5064496;28;20025;-68
2022/09/02 07:35:42;;;;;;;4.40;2.47;;;;;;;25.95;41.85;98316.06;5064473;28;20089;-68
2022/09/02 07:38:09;;;;;;;6.03;2.75;;;;;;;25.97;41.78;98308.72;5064284;28;20052;-68
2022/09/02 07:40:35;;;;;;;4.35;2.53;;;;;;;26.01;41.25;98304.78;5064270;28;20016;-68
2022/09/02 07:43:03;;;;;;;3.70;2.42;;;;;;;24.71;43.04;98307.72;5064226;28;20031;-68
2022/09/02 07:45:30;;;;;;;5.68;2.30;;;;;;;25.84;41.42;98313.47;5064234;28;20020;-68
2022/09/02 07:47:55;;;;;;;5.18;2.40;;;;;;;25.41;41.70;98310.00;5064118;28;20048;-68
2022/09/02 07:50:20;;;;;;;4.00;2.15;;;;;;;25.63;41.61;98315.28;5064261;28;20304;-68
2022/09/02 07:52:46;;;;;;;5.47;2.40;;;;;;;26.08;41.29;98319.44;5064061;28;20343;-68
2022/09/02 07:55:12;;;;;;;6.97;2.25;;;;;;;26.57;40.17;98330.34;5063948;28;20031;-68
2022/09/02 07:57:38;;;;;;;4.15;2.15;;;;;;;26.05;40.60;98325.09;5063966;28;20032;-68
2022/09/02 08:00:05;;;;;;;4.80;2.28;;;;;;;25.98;41.03;98315.84;5064142;28;20355;-68
2022/09/02 08:02:30;;;;;;;7.20;2.20;;;;;;;26.62;40.16;98322.72;5063545;28;20066;-68
2022/09/02 08:04:56;;;;;;;4.80;2.83;;;;;;;26.86;38.85;98315.16;5063904;28;20044;-68
2022/09/02 08:07:23;;;;;;;4.20;2.30;;;;;;;25.84;40.05;98324.25;5063896;28;20313;-68
2022/09/02 08:09:50;;;;;;;6.88;2.33;;;;;;;25.97;40.21;98314.13;5063855;28;20367;-68
2022/09/02 08:12:16;;;;;;;6.57;2.30;;;;;;;26.68;39.08;98324.88;5063860;28;20025;-68
2022/09/02 08:14:42;;;;;;;4.53;2.10;;;;;;;26.36;38.96;98316.06;5063679;28;20071;-68
2022/09/02 08:17:07;;;;;;;4.85;2.50;;;;;;;26.86;39.05;98323.25;5063798;28;20025;-68
2022/09/02 08:19:33;;;;;;;3.83;2.08;;;;;;;28.12;36.95;98333.00;5064006;28;20048;-68
2022/09/02 08:22:05;;;;;;;2.78;1.88;;;;;;;27.23;37.45;98318.91;5063775;28;20323;-68
2022/09/02 08:24:31;;;;;;;11.90;2.10;;;;;;;27.22;38.11;98328.88;5063966;28;20190;-68
2022/09/02 08:26:57;;;;;;;3.33;2.10;;;;;;;27.15;37.60;98324.16;5063971;28;20028;-68
2022/09/02 08:29:22;;;;;;;3.17;1.63;;;;;;;26.93;36.85;98316.28;5063648;28;20016;-68
2022/09/02 08:31:47;;;;;;;3.17;1.80;;;;;;;27.12;37.16;98319.03;5063672;28;20220;-68
2022/09/02 08:34:13;;;;;;;3.85;1.83;;;;;;;26.89;36.20;98314.88;5063582;28;20023;-68
2022/09/02 08:36:42;;;;;;;12.40;1.80;;;;;;;26.79;35.73;98313.97;5063649;28;20020;-68
2022/09/02 08:39:08;;;;;;;2.78;1.60;;;;;;;27.35;36.31;98320.50;5063837;28;20056;-68
2022/09/02 08:41:48;;;;;;;3.10;1.58;;;;;;;26.86;35.25;98320.56;5063600;28;20237;-68
2022/09/02 08:44:22;;;;;;;2.65;1.40;;;;;;;26.17;36.88;98321.34;5063513;28;20084;-68
2022/09/02 08:46:52;;;;;;;3.72;1.88;;;;;;;26.17;36.85;98321.34;5063772;28;20091;-68
2022/09/02 08:49:20;;;;;;;5.47;1.85;;;;;;;26.65;36.40;98327.84;5063487;28;20028;-68
2022/09/02 08:51:47;;;;;;;3.88;1.70;;;;;;;27.06;35.44;98335.81;5063482;28;20017;-68
2022/09/02 08:54:25;;;;;;;7.18;1.60;;;;;;;26.49;35.91;98316.69;5063405;28;20025;-68
2022/09/02 08:56:51;;;;;;;4.35;1.50;;;;;;;27.36;35.13;98324.91;5063427;28;20031;-68
2022/09/02 08:59:24;;;;;;;3.58;1.83;;;;;;;27.05;34.96;98342.22;5063225;28;20220;-68
2022/09/02 09:02:01;;;;;;;2.20;1.40;;;;;;;25.82;36.43;98326.22;5063608;28;20027;-68
2022/09/02 09:04:48;;;;;;;2.67;1.70;;;;;;;25.65;36.25;98313.31;5063358;28;20021;-68
2022/09/02 09:07:49;;;;;;;2.97;1.70;;;;;;;26.33;36.23;98327.97;5063388;28;20086;-68
2022/09/02 09:10:37;;;;;;;2.22;1.65;;;;;;;27.36;34.84;98316.81;5002108;28;20130;-68
2022/09/02 09:13:40;;;;;;;4.60;2.08;;;;;;;27.11;34.65;98331.69;5002145;28;20030;-68
2022/09/02 09:16:18;;;;;;;6.60;1.50;;;;;;;26.79;34.85;98319.38;5005534;28;20041;-68
2022/09/02 09:18:53;;;;;;;3.80;1.63;;;;;;;27.18;34.10;98321.19;5005796;28;20046;-68
2022/09/02 09:21:19;;;;;;;8.70;1.85;;;;;;;26.20;34.51;98311.13;5005739;28;20198;-68
2022/09/02 09:23:45;;;;;;;2.88;1.35;;;;;;;26.47;34.15;98318.66;5005607;28;20052;-68
2022/09/02 09:26:26;;;;;;;4.15;1.70;;;;;;;26.05;34.78;98303.53;5005582;28;20026;-68
2022/09/02 09:28:52;;;;;;;3.22;1.42;;;;;;;26.56;34.14;98307.03;5005637;28;20030;-68
2022/09/02 09:31:20;;;;;;;5.07;1.77;;;;;;;25.99;34.41;98340.00;5005519;28;20292;-68
2022/09/02 09:34:03;;;;;;;3.85;1.52;;;;;;;26.47;33.81;98307.84;5005398;28;20314;-68
2022/09/02 09:36:41;;;;;;;1.92;1.30;;;;;;;26.28;33.84;98313.16;5005427;28;20030;-68
2022/09/02 09:39:25;;;;;;;1.85;1.17;;;;;;;26.43;32.69;98322.63;5005406;28;20037;-68
2022/09/02 09:41:54;;;;;;;4.50;1.30;;;;;;;25.76;33.41;98315.94;5005275;28;20325;-68
2022/09/02 09:44:29;;;;;;;2.58;1.33;;;;;;;25.91;33.32;98314.63;5038951;28;20047;-68
2022/09/02 09:47:04;;;;;;;5.32;1.50;;;;;;;25.73;34.27;98317.06;5066344;28;20036;-68
2022/09/02 09:49:32;;;;;;;4.45;1.52;;;;;;;26.18;33.62;98301.47;5066577;28;20030;-68
2022/09/02 09:51:58;;;;;;;2.53;1.25;;;;;;;25.85;33.24;98293.59;5066230;28;20194;-68
2022/09/02 09:54:25;;;;;;;3.80;1.60;;;;;;;26.15;33.41;98324.19;5064955;28;20028;-68
2022/09/02 09:56:52;;;;;;;6.38;1.73;;;;;;;26.12;33.05;98283.13;5066153;28;20058;-68
2022/09/02 09:59:54;;;;;;;3.08;1.65;;;;;;;26.55;33.54;98289.16;5066051;28;20251;-68
2022/09/02 10:02:23;;;;;;;4.72;1.60;;;;;;;26.65;33.64;98290.06;5034812;28;20041;-68
2022/09/02 10:04:51;;;;;;;5.68;1.40;;;;;;;27.11;32.61;98276.78;5066004;28;20013;-68
2022/09/02 10:07:40;;;;;;;2.85;1.10;;;;;;;27.14;32.43;98304.38;5065997;28;20324;-68
2022/09/02 10:10:18;;;;;;;2.85;1.63;;;;;;;26.15;33.21;98275.63;5065851;28;20094;-68
2022/09/02 10:12:46;;;;;;;1.92;1.30;;;;;;;26.46;33.24;98284.56;5065723;28;20024;-68
2022/09/02 10:15:12;;;;;;;2.60;1.45;;;;;;;25.95;34.09;98268.41;5065808;28;20024;-68
2022/09/02 10:17:43;;;;;;;3.03;1.60;;;;;;;26.89;33.69;98293.25;5065746;28;20103;-68
2022/09/02 10:20:29;;;;;;;2.83;1.60;;;;;;;26.58;34.00;98273.50;5065762;28;20025;-68
2022/09/02 10:23:13;;;;;;;2.72;1.50;;;;;;;26.98;33.18;98262.69;5065675;28;20025;-68
2022/09/02 10:26:12;;;;;;;4.13;1.60;;;;;;;27.02;33.43;98261.44;5065400;28;20033;-68
2022/09/02 10:28:44;;;;;;;6.38;1.90;;;;;;;26.43;34.14;98274.03;5065573;28;20220;-68
2022/09/02 10:31:12;;;;;;;14.50;2.03;;;;;;;27.00;33.30;98258.00;5065746;28;20025;-68
2022/09/02 10:34:09;;;;;;;3.20;1.48;;;;;;;26.47;32.05;98248.47;5065440;28;20237;-68
2022/09/02 10:36:45;;;;;;;5.55;1.80;;;;;;;26.49;34.08;98254.59;5065427;28;20213;-68
2022/09/02 10:39:42;;;;;;;6.05;1.45;;;;;;;26.74;33.62;98257.66;5065329;28;20092;-68
2022/09/02 10:42:34;;;;;;;4.15;1.58;;;;;;;26.74;33.75;98251.44;5064798;28;20040;-68
2022/09/02 10:45:16;;;;;;;3.42;1.70;;;;;;;27.08;34.06;98250.91;5044463;28;20148;-68
2022/09/02 10:47:48;;;;;;;4.00;1.58;;;;;;;26.89;34.37;98250.03;5065459;28;20020;-68
2022/09/02 10:50:33;;;;;;;3.53;1.55;;;;;;;26.28;34.56;98243.00;5065237;28;20028;-68
2022/09/02 10:53:43;;;;;;;4.07;1.50;;;;;;;26.29;34.89;98221.28;5065012;28;20118;-68
2022/09/02 10:56:44;;;;;;;4.35;1.70;;;;;;;26.63;34.93;98238.03;5042640;28;20104;-68
2022/09/02 10:59:23;;;;;;;3.25;1.50;;;;;;;27.00;34.80;98241.78;5055182;28;20032;-68
2022/09/02 11:02:03;;;;;;;5.43;1.85;;;;;;;25.91;34.91;98229.19;5064991;28;20076;-68
2022/09/02 11:04:46;;;;;;;2.15;1.40;;;;;;;25.70;35.26;98235.59;5064880;28;20255;-68
2022/09/02 11:07:18;;;;;;;3.35;1.40;;;;;;;26.33;34.83;98246.16;5064832;28;20025;-68
2022/09/02 11:10:09;;;;;;;2.38;1.45;;;;;;;26.09;33.92;98237.53;5064635;28;20056;-68
2022/09/02 11:12:40;;;;;;;3.25;1.52;;;;;;;26.07;34.66;98239.53;5064765;28;20027;-68
2022/09/02 11:15:15;;;;;;;3.45;1.55;;;;;;;25.42;36.40;98220.06;5064649;28;20247;-68
2022/09/02 11:18:09;;;;;;;1.85;1.60;;;;;;;25.83;35.56;98220.06;5064564;28;20029;-68
2022/09/02 11:20:53;;;;;;;3.22;1.70;;;;;;;25.67;36.53;98225.06;5064818;28;20093;-68
2022/09/02 11:23:37;;;;;;;3.05;1.67;;;;;;;25.95;35.65;98221.69;5064519;28;20021;-68
2022/09/02 11:26:26;;;;;;;4.53;1.40;;;;;;;26.21;35.38;98236.44;5064523;28;20032;-68
2022/09/02 11:29:03;;;;;;;2.70;1.40;;;;;;;26.33;35.32;98224.56;5064674;28;20021;-68
2022/09/02 11:31:34;;;;;;;3.00;1.45;;;;;;;26.42;34.79;98215.66;5064661;28;20025;-68
2022/09/02 11:34:09;;;;;;;3.83;1.48;;;;;;;25.92;35.12;98213.84;5064271;28;20265;-68
2022/09/02 11:36:40;;;;;;;3.63;1.60;;;;;;;25.80;35.76;98206.84;5064160;28;20025;-68
2022/09/02 11:39:12;;;;;;;;;;;;;;;25.60;34.75;98207.72;5064467;28;20255;-68
2022/09/02 11:42:09;;;;;;;2.55;1.50;;;;;;;25.63;34.85;98196.69;5064229;28;19950;-68